Time;durP1;ratioP1;P1;durP2;ratioP2;P2;SDS_P1;SDS_P2;PMS_P1;PMS_P2;Temp;Humidity;BMP_temperature;BMP_pressure;BME280_temperature;BME280_humidity;BME280_pressure;Samples;Min_cycle;Max_cycle;Signal;HPM_P1;HPM_P2
2022/04/17 00:01:54;;;;;;;;;;;18.60;59.40;;;;;;4975545;28;1189;-67
2022/04/17 00:04:20;;;;;;;;;;;18.60;59.40;;;;;;4977086;28;773;-67
2022/04/17 00:06:45;;;;;;;;;;;18.60;59.40;;;;;;4975220;28;876;-67
2022/04/17 00:09:11;;;;;;;;;;;18.60;59.40;;;;;;4977602;28;869;-67
2022/04/17 00:11:37;;;;;;;;;;;18.60;59.40;;;;;;4976644;28;1177;-67
2022/04/17 00:14:03;;;;;;;;;;;18.60;59.40;;;;;;4975448;28;1970;-67
2022/04/17 00:16:28;;;;;;;;;;;18.60;59.50;;;;;;4976466;28;769;-67
2022/04/17 00:18:53;;;;;;;;;;;18.60;59.40;;;;;;4976484;28;1183;-67
2022/04/17 00:21:20;;;;;;;;;;;18.60;59.50;;;;;;4975864;28;1276;-67
2022/04/17 00:23:47;;;;;;;;;;;18.60;59.50;;;;;;4976731;28;1121;-67
2022/04/17 00:26:12;;;;;;;;;;;18.60;59.50;;;;;;4976165;28;691;-67
2022/04/17 00:28:38;;;;;;;;;;;18.60;59.50;;;;;;4959227;28;809;-67
2022/04/17 00:31:04;;;;;;;;;;;18.60;59.50;;;;;;4976269;28;1314;-67
2022/04/17 00:33:31;;;;;;;;;;;18.60;59.50;;;;;;4976340;28;1976;-67
2022/04/17 00:35:57;;;;;;;;;;;18.60;59.50;;;;;;4975946;28;889;-68
2022/04/17 00:38:22;;;;;;;;;;;18.60;59.60;;;;;;4952757;28;2598;-67
2022/04/17 00:40:48;;;;;;;;;;;18.60;59.50;;;;;;4976119;28;1261;-67
2022/04/17 00:43:23;;;;;;;;;;;18.60;59.60;;;;;;4976112;28;1160;-67
2022/04/17 00:45:49;;;;;;;;;;;18.60;59.50;;;;;;4958599;28;848;-67
2022/04/17 00:48:14;;;;;;;;;;;18.60;59.60;;;;;;4958775;28;848;-67
2022/04/17 00:50:40;;;;;;;;;;;18.60;59.50;;;;;;4958355;28;1551;-67
2022/04/17 00:53:06;;;;;;;;;;;18.60;59.50;;;;;;4975959;28;1959;-67
2022/04/17 00:55:31;;;;;;;;;;;18.60;59.50;;;;;;4962489;28;1082;-68
2022/04/17 00:57:57;;;;;;;;;;;18.60;59.50;;;;;;4986472;28;1233;-67
2022/04/17 01:00:22;;;;;;;;;;;18.60;59.50;;;;;;4985257;28;1350;-67
2022/04/17 01:02:48;;;;;;;;;;;18.60;59.50;;;;;;4985890;28;1205;-67
2022/04/17 01:05:13;;;;;;;;;;;18.60;59.40;;;;;;4984119;28;1252;-68
2022/04/17 01:07:39;;;;;;;;;;;18.60;59.40;;;;;;4985847;28;1110;-67
2022/04/17 01:10:05;;;;;;;;;;;18.60;59.40;;;;;;4984977;28;1285;-69
2022/04/17 01:12:30;;;;;;;;;;;18.60;59.40;;;;;;4983916;28;1969;-66
2022/04/17 01:14:56;;;;;;;;;;;18.60;59.40;;;;;;4985875;28;1336;-66
2022/04/17 01:17:21;;;;;;;;;;;18.60;59.40;;;;;;4960495;28;1304;-68
2022/04/17 01:19:47;;;;;;;;;;;18.60;59.40;;;;;;4975267;28;1212;-68
2022/04/17 01:22:12;;;;;;;;;;;18.60;59.40;;;;;;4975533;28;947;-68
2022/04/17 01:27:22;;;;;;;;;;;18.60;59.40;;;;;;4960632;28;635;-68
2022/04/17 01:29:47;;;;;;;;;;;18.60;59.40;;;;;;4958153;28;1236;-68
2022/04/17 01:32:12;;;;;;;;;;;18.60;59.40;;;;;;4974228;28;1014;-68
2022/04/17 01:34:38;;;;;;;;;;;18.60;59.30;;;;;;4975157;28;1963;-68
2022/04/17 01:37:04;;;;;;;;;;;18.60;59.30;;;;;;4975166;28;1192;-68
2022/04/17 01:39:29;;;;;;;;;;;18.60;59.30;;;;;;4975122;28;1033;-68
2022/04/17 01:41:55;;;;;;;;;;;18.60;59.30;;;;;;4975128;28;1208;-67
2022/04/17 01:44:20;;;;;;;;;;;18.70;59.40;;;;;;4975155;28;796;-68
2022/04/17 01:46:46;;;;;;;;;;;18.70;59.40;;;;;;4974827;28;899;-68
2022/04/17 01:49:12;;;;;;;;;;;18.70;59.30;;;;;;4975085;28;797;-68
2022/04/17 01:51:38;;;;;;;;;;;18.70;59.30;;;;;;4975016;28;1187;-68
2022/04/17 01:54:04;;;;;;;;;;;18.70;59.30;;;;;;4974923;28;1899;-68
2022/04/17 01:56:29;;;;;;;;;;;18.70;59.30;;;;;;4974736;28;1018;-68
2022/04/17 01:58:55;;;;;;;;;;;18.60;59.30;;;;;;4974854;28;883;-68
2022/04/17 02:01:20;;;;;;;;;;;18.60;59.30;;;;;;5018400;22;1779;-70
2022/04/17 02:03:45;;;;;;;;;;;18.70;59.30;;;;;;5013765;28;879;-70
2022/04/17 02:06:11;;;;;;;;;;;18.70;59.30;;;;;;5013557;28;702;-70
2022/04/17 02:08:37;;;;;;;;;;;18.60;59.30;;;;;;5013747;28;796;-70
2022/04/17 02:11:02;;;;;;;;;;;18.60;59.30;;;;;;5013675;28;1217;-69
2022/04/17 02:13:28;;;;;;;;;;;18.60;59.30;;;;;;5012582;28;1902;-68
2022/04/17 02:15:53;;;;;;;;;;;18.60;59.30;;;;;;5013310;28;883;-68
2022/04/17 02:18:20;;;;;;;;;;;18.70;59.30;;;;;;5029763;28;1206;-69
2022/04/17 02:20:46;;;;;;;;;;;18.60;59.30;;;;;;5053171;28;1209;-68
2022/04/17 02:23:12;;;;;;;;;;;18.70;59.90;;;;;;5051940;28;1022;-68
2022/04/17 02:25:37;;;;;;;;;;;18.60;59.30;;;;;;5053050;28;965;-68
2022/04/17 02:28:03;;;;;;;;;;;18.70;59.40;;;;;;5051959;28;902;-68
2022/04/17 02:30:28;;;;;;;;;;;18.60;59.30;;;;;;5053411;28;1260;-69
2022/04/17 02:32:53;;;;;;;;;;;18.60;59.30;;;;;;5053447;28;1898;-69
2022/04/17 02:35:19;;;;;;;;;;;18.60;59.30;;;;;;5052944;28;1056;-69
2022/04/17 02:37:44;;;;;;;;;;;18.60;59.30;;;;;;5038128;28;1126;-70
2022/04/17 02:40:10;;;;;;;;;;;18.70;59.40;;;;;;5033014;28;1284;-70
2022/04/17 02:42:35;;;;;;;;;;;18.60;59.30;;;;;;5031511;28;1291;-70
2022/04/17 02:45:01;;;;;;;;;;;18.60;59.30;;;;;;5032893;28;689;-70
2022/04/17 02:47:45;;;;;;;;;;;18.60;59.30;;;;;;5031830;28;1165;-70
2022/04/17 02:50:11;;;;;;;;;;;18.60;59.30;;;;;;5032918;28;1625;-70
2022/04/17 02:52:37;;;;;;;;;;;18.60;59.30;;;;;;5031778;28;1940;-70
2022/04/17 02:55:03;;;;;;;;;;;18.60;59.30;;;;;;5032997;28;823;-70
2022/04/17 02:57:28;;;;;;;;;;;18.60;59.30;;;;;;5031585;28;1319;-70
2022/04/17 02:59:53;;;;;;;;;;;18.60;59.40;;;;;;5031520;28;730;-70
2022/04/17 03:07:47;;;;;;;;;;;18.60;59.30;;;;;;5031586;28;685;-70
2022/04/17 03:10:12;;;;;;;;;;;18.60;59.40;;;;;;5014788;28;1218;-70
2022/04/17 03:12:38;;;;;;;;;;;18.60;59.40;;;;;;5031519;28;1902;-70
2022/04/17 03:15:04;;;;;;;;;;;18.60;59.40;;;;;;5014916;28;1441;-70
2022/04/17 03:17:29;;;;;;;;;;;18.60;59.40;;;;;;5031247;28;1170;-69
2022/04/17 03:19:55;;;;;;;;;;;18.60;59.40;;;;;;5049448;28;1214;-70
2022/04/17 03:22:21;;;;;;;;;;;18.60;59.40;;;;;;5051321;28;1263;-70
2022/04/17 03:24:46;;;;;;;;;;;18.60;59.40;;;;;;5052397;28;1013;-70
2022/04/17 03:27:12;;;;;;;;;;;18.60;59.40;;;;;;5052347;28;878;-70
2022/04/17 03:29:37;;;;;;;;;;;18.60;59.40;;;;;;5051185;28;871;-70
2022/04/17 03:32:03;;;;;;;;;;;18.60;59.40;;;;;;5052463;28;1268;-69
2022/04/17 03:34:28;;;;;;;;;;;18.60;59.40;;;;;;5051184;28;1906;-70
2022/04/17 03:36:54;;;;;;;;;;;18.60;59.40;;;;;;5043257;28;1127;-70
2022/04/17 03:39:19;;;;;;;;;;;18.60;59.40;;;;;;5031018;28;911;-69
2022/04/17 03:41:46;;;;;;;;;;;18.60;59.40;;;;;;5031278;28;1175;-69
2022/04/17 03:44:12;;;;;;;;;;;18.60;59.40;;;;;;5032496;28;867;-69
2022/04/17 03:46:37;;;;;;;;;;;18.60;59.40;;;;;;5014683;28;1041;-69
2022/04/17 03:49:03;;;;;;;;;;;18.60;59.40;;;;;;5031260;28;794;-69
2022/04/17 03:51:28;;;;;;;;;;;18.60;59.40;;;;;;5031167;28;1307;-69
2022/04/17 03:53:54;;;;;;;;;;;18.60;59.40;;;;;;5032487;28;1895;-69
2022/04/17 03:56:19;;;;;;;;;;;18.60;59.40;;;;;;5035141;28;914;-70
2022/04/17 03:58:45;;;;;;;;;;;18.60;59.40;;;;;;5018253;28;910;-69
2022/04/17 04:01:10;;;;;;;;;;;18.60;59.40;;;;;;5034542;28;1286;-69
2022/04/17 04:03:37;;;;;;;;;;;18.60;59.40;;;;;;5018156;28;950;-69
2022/04/17 04:06:04;;;;;;;;;;;18.60;59.40;;;;;;5035610;28;867;-69
2022/04/17 04:08:30;;;;;;;;;;;18.60;59.40;;;;;;5034382;28;1216;-70
2022/04/17 04:10:55;;;;;;;;;;;18.60;59.40;;;;;;5034336;28;1273;-69
2022/04/17 04:13:20;;;;;;;;;;;18.60;59.40;;;;;;5034361;28;1894;-69
2022/04/17 04:15:46;;;;;;;;;;;18.60;59.40;;;;;;5034366;28;1006;-69
2022/04/17 04:18:11;;;;;;;;;;;18.60;59.40;;;;;;5038188;28;1119;-70
2022/04/17 04:20:37;;;;;;;;;;;18.60;59.40;;;;;;5054072;28;1295;-70
2022/04/17 04:23:02;;;;;;;;;;;18.60;59.50;;;;;;5054043;28;871;-70
2022/04/17 04:25:27;;;;;;;;;;;18.50;59.40;;;;;;5055248;28;1040;-70
2022/04/17 04:30:37;;;;;;;;;;;18.60;59.50;;;;;;5055961;28;1275;-71
2022/04/17 04:33:03;;;;;;;;;;;18.50;59.50;;;;;;5054340;28;1902;-70
2022/04/17 04:35:31;;;;;;;;;;;18.50;59.50;;;;;;5054985;28;906;-70
2022/04/17 04:37:56;;;;;;;;;;;18.60;59.50;;;;;;5037735;28;1182;-70
2022/04/17 04:40:22;;;;;;;;;;;18.60;59.50;;;;;;5033684;28;1229;-71
2022/04/17 04:42:48;;;;;;;;;;;18.60;59.50;;;;;;5034028;28;1045;-70
2022/04/17 04:47:58;;;;;;;;;;;18.60;59.40;;;;;;5033978;28;614;-69
2022/04/17 04:50:23;;;;;;;;;;;18.60;59.30;;;;;;5034795;28;1220;-69
2022/04/17 04:52:48;;;;;;;;;;;18.60;59.30;;;;;;5034967;28;1898;-70
2022/04/17 04:55:14;;;;;;;;;;;18.60;59.20;;;;;;5035195;28;761;-70
2022/04/17 04:57:39;;;;;;;;;;;18.60;59.10;;;;;;5033423;28;891;-69
2022/04/17 05:00:05;;;;;;;;;;;18.70;59.10;;;;;;5035012;28;1750;-70
2022/04/17 05:02:31;;;;;;;;;;;18.70;59.00;;;;;;5034682;28;788;-68
2022/04/17 05:04:56;;;;;;;;;;;18.70;58.90;;;;;;5033564;28;812;-70
2022/04/17 05:07:21;;;;;;;;;;;18.70;58.80;;;;;;5032900;28;891;-69
2022/04/17 05:09:47;;;;;;;;;;;18.80;58.80;;;;;;5034532;28;839;-69
2022/04/17 05:12:12;;;;;;;;;;;18.80;58.80;;;;;;5017163;28;1182;-69
2022/04/17 05:14:41;;;;;;;;;;;18.80;58.80;;;;;;5033401;28;1910;-69
2022/04/17 05:17:07;;;;;;;;;;;18.80;58.70;;;;;;5033130;28;1139;-71
2022/04/17 05:19:32;;;;;;;;;;;18.80;58.70;;;;;;5046522;28;1126;-71
2022/04/17 05:21:58;;;;;;;;;;;18.80;58.60;;;;;;5054289;28;1181;-70
2022/04/17 05:24:24;;;;;;;;;;;18.80;58.60;;;;;;5053001;28;851;-71
2022/04/17 05:26:50;;;;;;;;;;;18.80;58.50;;;;;;5052949;28;883;-71
2022/04/17 05:29:15;;;;;;;;;;;18.90;58.50;;;;;;5052910;28;864;-71
2022/04/17 05:31:41;;;;;;;;;;;18.90;58.50;;;;;;5053962;28;1193;-71
2022/04/17 05:34:06;;;;;;;;;;;18.90;58.50;;;;;;5052685;28;1957;-71
2022/04/17 05:36:31;;;;;;;;;;;18.90;58.50;;;;;;5049079;28;1106;-71
2022/04/17 05:38:57;;;;;;;;;;;18.90;58.40;;;;;;5032973;28;879;-71
2022/04/17 05:41:22;;;;;;;;;;;18.90;58.40;;;;;;5016407;28;1286;-69
2022/04/17 05:43:48;;;;;;;;;;;18.90;58.40;;;;;;5032877;28;1002;-69
2022/04/17 05:46:13;;;;;;;;;;;18.90;58.40;;;;;;5032543;28;906;-69
2022/04/17 05:48:39;;;;;;;;;;;18.90;58.40;;;;;;5033456;28;807;-69
2022/04/17 05:51:04;;;;;;;;;;;18.90;58.30;;;;;;5032903;28;1292;-69
2022/04/17 05:53:30;;;;;;;;;;;18.90;58.40;;;;;;5032497;28;1906;-69
2022/04/17 05:55:56;;;;;;;;;;;18.90;58.30;;;;;;5033541;28;808;-69
2022/04/17 05:58:21;;;;;;;;;;;18.90;58.30;;;;;;5033742;28;799;-69
2022/04/17 06:00:47;;;;;;;;;;;18.90;58.30;;;;;;5033484;28;1205;-69
2022/04/17 06:03:15;;;;;;;;;;;18.90;58.30;;;;;;5033465;28;867;-69
2022/04/17 06:05:41;;;;;;;;;;;18.90;58.30;;;;;;5031998;28;1365;-69
2022/04/17 06:08:06;;;;;;;;;;;19.00;58.30;;;;;;5032461;28;1267;-69
2022/04/17 06:10:32;;;;;;;;;;;18.90;58.20;;;;;;5033726;28;1146;-70
2022/04/17 06:12:57;;;;;;;;;;;19.00;58.30;;;;;;5033719;28;1955;-69
2022/04/17 06:15:23;;;;;;;;;;;19.00;58.30;;;;;;5015767;28;1211;-69
2022/04/17 06:17:48;;;;;;;;;;;19.00;58.20;;;;;;5032373;28;1206;-69
2022/04/17 06:20:14;;;;;;;;;;;19.00;58.20;;;;;;5050971;28;1261;-69
2022/04/17 06:22:40;;;;;;;;;;;19.00;58.20;;;;;;5051905;28;776;-69
2022/04/17 06:25:06;;;;;;;;;;;19.00;58.20;;;;;;5052161;28;811;-69
2022/04/17 06:27:35;;;;;;;;;;;19.00;58.20;;;;;;5035061;28;1263;-69
2022/04/17 06:30:04;;;;;;;;;;;19.00;58.20;;;;;;5052956;28;1158;-69
2022/04/17 06:32:30;;;;;;;;;;;19.00;58.20;;;;;;5052952;28;1029;-69
2022/04/17 06:34:56;;;;;;;;;;;19.00;58.20;;;;;;5035245;28;1955;-69
2022/04/17 06:37:21;;;;;;;;;;;19.00;58.20;;;;;;5040777;28;1114;-70
2022/04/17 06:39:47;;;;;;;;;;;19.00;58.20;;;;;;5024547;28;2196;-69
2022/04/17 06:42:12;;;;;;;;;;;19.10;58.20;;;;;;5029779;28;1256;-69
2022/04/17 06:44:37;;;;;;;;;;;19.10;58.10;;;;;;5018441;28;1110;-69
2022/04/17 06:47:03;;;;;;;;;;;19.20;58.00;;;;;;5044581;28;1253;-70
2022/04/17 06:49:28;;;;;;;;;;;19.20;57.80;;;;;;5051467;28;1116;-70
2022/04/17 06:51:54;;;;;;;;;;;19.30;57.70;;;;;;5034706;28;1187;-70
2022/04/17 06:54:19;;;;;;;;;;;19.40;57.60;;;;;;5049556;28;1898;-71
2022/04/17 06:56:45;;;;;;;;;;;19.60;57.40;;;;;;5047456;28;1284;-72
2022/04/17 06:59:12;;;;;;;;;;;19.60;57.20;;;;;;5036951;28;1484;-72
2022/04/17 07:01:37;;;;;;;;;;;19.70;57.00;;;;;;5053412;28;1307;-72
2022/04/17 07:04:03;;;;;;;;;;;19.80;56.90;;;;;;5053602;28;1147;-71
2022/04/17 07:06:28;;;;;;;;;;;19.80;56.60;;;;;;5052067;28;1148;-71
2022/04/17 07:08:53;;;;;;;;;;;19.90;56.50;;;;;;5053269;28;839;-72
2022/04/17 07:11:22;;;;;;;;;;;20.00;56.30;;;;;;5052887;28;1205;-70
2022/04/17 07:13:48;;;;;;;;;;;20.10;56.30;;;;;;5053938;28;1961;-71
2022/04/17 07:16:13;;;;;;;;;;;20.10;56.10;;;;;;5053261;28;990;-72
2022/04/17 07:18:39;;;;;;;;;;;20.10;56.10;;;;;;5026285;28;1194;-71
2022/04/17 07:21:05;;;;;;;;;;;20.10;56.00;;;;;;5053998;28;1236;-71
2022/04/17 07:23:30;;;;;;;;;;;20.10;56.00;;;;;;5032961;28;984;-70
2022/04/17 07:25:57;;;;;;;;;;;20.20;55.90;;;;;;5043946;28;1121;-69
2022/04/17 07:28:23;;;;;;;;;;;20.20;55.90;;;;;;5052480;28;875;-70
2022/04/17 07:30:49;;;;;;;;;;;20.20;55.90;;;;;;5054927;28;1220;-69
2022/04/17 07:33:16;;;;;;;;;;;20.20;55.80;;;;;;5056173;28;1951;-69
2022/04/17 07:35:41;;;;;;;;;;;20.20;55.80;;;;;;5056461;28;898;-71
2022/04/17 07:38:06;;;;;;;;;;;20.20;55.80;;;;;;5039329;28;1197;-71
2022/04/17 07:40:32;;;;;;;;;;;20.20;56.40;;;;;;5037984;28;1295;-72
2022/04/17 07:42:58;;;;;;;;;;;20.20;55.80;;;;;;5047564;28;1207;-70
2022/04/17 07:45:24;;;;;;;;;;;20.10;55.80;;;;;;5053209;28;1332;-69
2022/04/17 07:47:50;;;;;;;;;;;20.10;55.90;;;;;;5054568;28;994;-69
2022/04/17 07:50:16;;;;;;;;;;;20.10;55.90;;;;;;5045004;28;1660;-69
2022/04/17 07:52:41;;;;;;;;;;;20.10;56.00;;;;;;5034763;28;1902;-69
2022/04/17 07:55:07;;;;;;;;;;;20.10;56.10;;;;;;5034846;28;854;-69
2022/04/17 08:00:21;;;;;;;;;;;20.10;56.20;;;;;;5036337;28;1215;-70
2022/04/17 08:02:50;;;;;;;;;;;20.00;56.20;;;;;;5056844;23;3602;-72
2022/04/17 08:05:15;;;;;;;;;;;20.00;56.30;;;;;;5037613;28;1318;-72
2022/04/17 08:07:41;;;;;;;;;;;20.00;56.30;;;;;;5054286;28;1207;-72
2022/04/17 08:10:06;;;;;;;;;;;20.00;56.40;;;;;;5055494;28;791;-71
2022/04/17 08:12:32;;;;;;;;;;;19.90;56.40;;;;;;5055451;28;1210;-71
2022/04/17 08:14:58;;;;;;;;;;;19.90;56.50;;;;;;5055473;28;1914;-71
2022/04/17 08:17:23;;;;;;;;;;;19.90;56.50;;;;;;5055660;28;748;-73
2022/04/17 08:19:49;;;;;;;;;;;19.90;56.60;;;;;;5039679;28;1248;-73
2022/04/17 08:22:14;;;;;;;;;;;19.90;56.70;;;;;;5017729;28;1315;-73
2022/04/17 08:24:39;;;;;;;;;;;19.90;56.70;;;;;;5035228;28;696;-72
2022/04/17 08:27:05;;;;;;;;;;;19.80;56.70;;;;;;5017493;28;1233;-72
2022/04/17 08:29:32;;;;;;;;;;;19.80;56.80;;;;;;5017675;28;796;-73
2022/04/17 08:31:57;;;;;;;;;;;19.80;56.90;;;;;;5017483;28;1311;-70
2022/04/17 08:34:23;;;;;;;;;;;19.80;57.00;;;;;;5035346;28;1902;-70
2022/04/17 08:36:48;;;;;;;;;;;19.80;57.00;;;;;;5020820;28;1116;-70
2022/04/17 08:39:14;;;;;;;;;;;19.70;57.00;;;;;;5035140;28;820;-69
2022/04/17 08:41:40;;;;;;;;;;;19.70;57.10;;;;;;5033262;28;1295;-72
2022/04/17 08:44:06;;;;;;;;;;;19.70;57.20;;;;;;5035143;28;1013;-72
2022/04/17 08:46:31;;;;;;;;;;;19.70;57.20;;;;;;5034951;28;839;-72
2022/04/17 08:48:58;;;;;;;;;;;19.70;57.20;;;;;;5033637;28;1186;-72
2022/04/17 08:51:23;;;;;;;;;;;19.60;57.20;;;;;;5033699;28;1190;-72
2022/04/17 08:53:49;;;;;;;;;;;19.60;57.30;;;;;;5033528;28;1902;-70
2022/04/17 08:56:14;;;;;;;;;;;19.60;57.30;;;;;;5033444;28;1078;-70
2022/04/17 08:58:39;;;;;;;;;;;19.60;57.90;;;;;;5034820;28;827;-70
2022/04/17 09:01:05;;;;;;;;;;;19.60;57.40;;;;;;5042881;28;1362;-71
2022/04/17 09:03:30;;;;;;;;;;;19.60;57.50;;;;;;5036506;28;1215;-71
2022/04/17 09:05:56;;;;;;;;;;;19.50;57.50;;;;;;5054139;28;1254;-71
2022/04/17 09:08:21;;;;;;;;;;;19.50;57.50;;;;;;5054205;28;1579;-72
2022/04/17 09:10:54;;;;;;;;;;;19.50;57.60;;;;;;5054186;28;1211;-72
2022/04/17 09:13:30;;;;;;;;;;;19.50;57.60;;;;;;5050173;28;1971;-72
2022/04/17 09:15:55;;;;;;;;;;;19.50;57.70;;;;;;5030855;28;1173;-72
2022/04/17 09:18:20;;;;;;;;;;;19.40;57.70;;;;;;5050048;28;1270;-72
2022/04/17 09:20:46;;;;;;;;;;;19.40;57.70;;;;;;5035986;28;1324;-70
2022/04/17 09:23:12;;;;;;;;;;;19.50;57.80;;;;;;5016087;28;998;-70
2022/04/17 09:25:37;;;;;;;;;;;19.40;57.80;;;;;;5034167;28;831;-70
2022/04/17 09:28:06;;;;;;;;;;;19.40;57.90;;;;;;5034114;28;887;-70
2022/04/17 09:30:39;;;;;;;;;;;19.40;57.90;;;;;;5016522;28;803;-70
2022/04/17 09:33:05;;;;;;;;;;;19.40;57.90;;;;;;5016613;28;1957;-71
2022/04/17 09:35:30;;;;;;;;;;;19.40;58.00;;;;;;5015858;28;867;-70
2022/04/17 09:37:59;;;;;;;;;;;19.40;58.00;;;;;;5033607;28;1190;-70
2022/04/17 09:40:25;;;;;;;;;;;19.30;58.00;;;;;;5033807;28;784;-70
2022/04/17 09:42:51;;;;;;;;;;;19.30;58.00;;;;;;5033518;28;1323;-70
2022/04/17 09:45:17;;;;;;;;;;;19.30;58.10;;;;;;5015685;28;1113;-70
2022/04/17 09:47:54;;;;;;;;;;;19.30;58.10;;;;;;5033710;28;875;-70
2022/04/17 09:50:22;;;;;;;;;;;19.30;58.10;;;;;;5033164;28;859;-69
2022/04/17 09:52:49;;;;;;;;;;;19.30;58.10;;;;;;5014920;28;1955;-70
2022/04/17 09:55:14;;;;;;;;;;;19.30;58.20;;;;;;5033196;28;918;-70
2022/04/17 09:57:45;;;;;;;;;;;19.30;58.20;;;;;;5012213;28;1789;-70
2022/04/17 10:00:11;;;;;;;;;;;19.20;58.20;;;;;;5033135;28;918;-70
2022/04/17 10:02:38;;;;;;;;;;;19.30;58.30;;;;;;5032965;28;1299;-70
2022/04/17 10:05:03;;;;;;;;;;;19.20;58.30;;;;;;5022940;28;900;-70
2022/04/17 10:07:29;;;;;;;;;;;19.20;58.30;;;;;;5013013;28;862;-70
2022/04/17 10:09:54;;;;;;;;;;;19.20;58.30;;;;;;5000974;28;2085;-70
2022/04/17 10:12:20;;;;;;;;;;;19.20;58.40;;;;;;5027447;28;2038;-70
2022/04/17 10:14:47;;;;;;;;;;;19.20;58.40;;;;;;5032798;28;1977;-70
2022/04/17 10:17:13;;;;;;;;;;;19.20;58.40;;;;;;5018394;28;1205;-68
2022/04/17 10:19:39;;;;;;;;;;;19.20;58.50;;;;;;5015633;28;918;-69
2022/04/17 10:22:04;;;;;;;;;;;19.20;58.50;;;;;;5015249;28;1375;-68
2022/04/17 10:24:29;;;;;;;;;;;19.10;58.50;;;;;;5032941;28;887;-69
2022/04/17 10:26:55;;;;;;;;;;;19.10;58.50;;;;;;5015275;28;785;-69
2022/04/17 10:29:27;;;;;;;;;;;19.10;58.50;;;;;;5015472;28;700;-69
2022/04/17 10:32:07;;;;;;;;;;;19.10;58.60;;;;;;5032571;28;1208;-69
2022/04/17 10:34:51;;;;;;;;;;;19.10;58.60;;;;;;5032807;28;1957;-68
2022/04/17 10:37:29;;;;;;;;;;;19.10;58.60;;;;;;5015261;28;851;-69
2022/04/17 10:39:56;;;;;;;;;;;19.10;58.70;;;;;;5022435;28;1275;-68
2022/04/17 10:42:23;;;;;;;;;;;19.10;58.70;;;;;;5026922;28;1298;-69
2022/04/17 10:45:01;;;;;;;;;;;19.10;58.80;;;;;;5023911;28;1855;-69
2022/04/17 10:47:27;;;;;;;;;;;19.10;58.80;;;;;;5029921;28;1224;-69
2022/04/17 10:49:53;;;;;;;;;;;19.00;58.80;;;;;;5046791;28;1149;-69
2022/04/17 10:52:31;;;;;;;;;;;19.00;58.80;;;;;;5040016;28;2143;-69
2022/04/17 10:55:09;;;;;;;;;;;19.00;58.80;;;;;;5042761;28;1898;-68
2022/04/17 10:57:47;;;;;;;;;;;19.00;58.80;;;;;;5033527;28;1790;-68
2022/04/17 11:00:28;;;;;;;;;;;19.00;58.90;;;;;;5026168;28;1319;-69
2022/04/17 11:02:54;;;;;;;;;;;19.00;58.90;;;;;;5033467;28;1945;-69
2022/04/17 11:08:23;;;;;;;;;;;19.00;58.90;;;;;;5022061;28;1119;-69
2022/04/17 11:10:51;;;;;;;;;;;18.90;58.90;;;;;;4999645;28;1493;-69
2022/04/17 11:13:17;;;;;;;;;;;19.00;59.00;;;;;;5034011;28;1986;-69
2022/04/17 11:15:43;;;;;;;;;;;18.90;59.00;;;;;;5018699;28;907;-69
2022/04/17 11:18:08;;;;;;;;;;;18.90;59.00;;;;;;5037221;28;1021;-68
2022/04/17 11:20:34;;;;;;;;;;;18.90;59.00;;;;;;5018837;28;1411;-68
2022/04/17 11:22:59;;;;;;;;;;;18.90;59.10;;;;;;5030566;28;1432;-68
2022/04/17 11:25:26;;;;;;;;;;;18.90;59.10;;;;;;5034606;28;1324;-69
2022/04/17 11:27:51;;;;;;;;;;;18.90;59.10;;;;;;5056103;28;1243;-69
2022/04/17 11:30:17;;;;;;;;;;;18.90;59.10;;;;;;5037685;28;1238;-68
2022/04/17 11:32:42;;;;;;;;;;;18.90;59.10;;;;;;5055579;28;1389;-68
2022/04/17 11:35:08;;;;;;;;;;;18.90;59.10;;;;;;5055239;28;1942;-68
2022/04/17 11:37:33;;;;;;;;;;;18.90;59.20;;;;;;5054350;28;1179;-68
2022/04/17 11:40:08;;;;;;;;;;;18.90;59.20;;;;;;5055197;28;1250;-68
2022/04/17 11:42:39;;;;;;;;;;;18.90;59.20;;;;;;5055647;28;1205;-70
2022/04/17 11:45:05;;;;;;;;;;;18.80;59.20;;;;;;5044029;28;2400;-70
2022/04/17 11:47:30;;;;;;;;;;;18.80;59.20;;;;;;5034426;28;1239;-70
2022/04/17 11:49:55;;;;;;;;;;;18.80;59.20;;;;;;5018071;28;1286;-69
2022/04/17 11:52:21;;;;;;;;;;;18.80;59.30;;;;;;5017756;28;1212;-69
2022/04/17 11:54:47;;;;;;;;;;;18.80;59.30;;;;;;5018067;28;1898;-70
2022/04/17 11:57:13;;;;;;;;;;;18.80;59.30;;;;;;5016349;28;954;-70
2022/04/17 11:59:48;;;;;;;;;;;18.80;59.30;;;;;;5035728;28;1013;-70
2022/04/17 12:02:17;;;;;;;;;;;18.80;59.40;;;;;;5035224;28;1292;-70
2022/04/17 12:04:43;;;;;;;;;;;18.80;59.40;;;;;;5017854;28;867;-70
2022/04/17 12:07:11;;;;;;;;;;;18.80;59.40;;;;;;5035416;28;1022;-69
2022/04/17 12:09:37;;;;;;;;;;;18.80;59.40;;;;;;5035569;28;1099;-69
2022/04/17 12:12:06;;;;;;;;;;;18.80;59.40;;;;;;5017631;28;1184;-70
2022/04/17 12:14:32;;;;;;;;;;;18.80;59.40;;;;;;5017462;28;1898;-70
2022/04/17 12:16:57;;;;;;;;;;;18.80;59.40;;;;;;5016653;28;1096;-70
2022/04/17 12:19:25;;;;;;;;;;;18.70;59.40;;;;;;5017576;28;863;-70
2022/04/17 12:21:50;;;;;;;;;;;18.70;59.40;;;;;;5017810;28;1265;-70
2022/04/17 12:24:16;;;;;;;;;;;18.80;59.50;;;;;;5035156;28;780;-70
2022/04/17 12:26:41;;;;;;;;;;;18.80;59.50;;;;;;5035264;28;769;-70
2022/04/17 12:29:06;;;;;;;;;;;18.80;59.50;;;;;;5035008;28;1030;-70
2022/04/17 12:31:33;;;;;;;;;;;18.70;59.50;;;;;;5035061;28;1299;-70
2022/04/17 12:34:13;;;;;;;;;;;18.70;59.50;;;;;;5017402;28;1902;-70
2022/04/17 12:36:38;;;;;;;;;;;18.80;59.60;;;;;;5019184;28;1430;-70
2022/04/17 12:39:04;;;;;;;;;;;18.70;59.50;;;;;;5034632;28;1881;-70
2022/04/17 12:41:36;;;;;;;;;;;18.70;59.50;;;;;;5017828;28;1298;-70
2022/04/17 12:44:01;;;;;;;;;;;18.70;59.60;;;;;;5030062;28;1174;-70
2022/04/17 12:46:27;;;;;;;;;;;18.70;59.60;;;;;;5034532;28;1146;-70
2022/04/17 12:49:02;;;;;;;;;;;18.70;59.60;;;;;;5034815;28;795;-70
2022/04/17 12:51:28;;;;;;;;;;;18.70;59.60;;;;;;5016369;28;1385;-70
2022/04/17 12:53:53;;;;;;;;;;;18.70;59.60;;;;;;5034624;28;1953;-70
2022/04/17 12:56:20;;;;;;;;;;;18.70;59.70;;;;;;5016992;28;1057;-71
2022/04/17 12:58:56;;;;;;;;;;;18.70;59.70;;;;;;5017094;28;1509;-70
2022/04/17 13:01:22;;;;;;;;;;;18.70;59.70;;;;;;5034249;28;1208;-69
2022/04/17 13:03:47;;;;;;;;;;;18.70;59.70;;;;;;5001446;28;2211;-69
2022/04/17 13:06:20;;;;;;;;;;;18.70;59.70;;;;;;5033542;28;1129;-69
2022/04/17 13:09:04;;;;;;;;;;;18.70;59.70;;;;;;5007748;28;1248;-69
2022/04/17 13:11:39;;;;;;;;;;;18.70;59.80;;;;;;5033998;28;1220;-69
2022/04/17 13:14:05;;;;;;;;;;;18.70;59.70;;;;;;5034217;28;1902;-70
2022/04/17 13:16:31;;;;;;;;;;;18.70;60.40;;;;;;5031608;28;2040;-69
2022/04/17 13:18:56;;;;;;;;;;;18.60;59.70;;;;;;5024853;28;1219;-70
2022/04/17 13:21:21;;;;;;;;;;;18.60;59.70;;;;;;5033599;28;1216;-70
2022/04/17 13:23:47;;;;;;;;;;;18.60;59.80;;;;;;5034099;28;849;-69
2022/04/17 13:26:13;;;;;;;;;;;18.60;59.80;;;;;;5033721;28;856;-69
2022/04/17 13:28:38;;;;;;;;;;;18.60;59.80;;;;;;5033802;28;847;-69
2022/04/17 13:31:05;;;;;;;;;;;18.60;59.80;;;;;;5033614;28;1223;-69
2022/04/17 13:33:31;;;;;;;;;;;18.60;59.80;;;;;;5033915;28;1902;-69
2022/04/17 13:35:56;;;;;;;;;;;18.60;59.80;;;;;;5032180;28;895;-69
2022/04/17 13:38:22;;;;;;;;;;;18.60;59.80;;;;;;5033666;28;1159;-69
2022/04/17 13:40:48;;;;;;;;;;;18.60;59.80;;;;;;5033860;28;1295;-69
2022/04/17 13:43:13;;;;;;;;;;;18.60;59.80;;;;;;5033760;28;996;-69
2022/04/17 13:45:39;;;;;;;;;;;18.60;59.80;;;;;;5033334;28;1014;-69
2022/04/17 13:48:05;;;;;;;;;;;18.60;59.90;;;;;;5033591;28;856;-69
2022/04/17 13:50:30;;;;;;;;;;;18.60;59.80;;;;;;5028299;28;2205;-69
2022/04/17 13:52:56;;;;;;;;;;;18.60;59.80;;;;;;5024125;28;1886;-69
2022/04/17 13:55:21;;;;;;;;;;;18.60;59.80;;;;;;5033516;28;1158;-70
2022/04/17 13:57:48;;;;;;;;;;;18.60;59.90;;;;;;5033179;28;915;-69
2022/04/17 14:00:14;;;;;;;;;;;18.60;60.60;;;;;;5033188;28;899;-69
2022/04/17 14:02:39;;;;;;;;;;;18.60;59.90;;;;;;5032579;28;1242;-69
2022/04/17 14:05:06;;;;;;;;;;;18.60;59.90;;;;;;5033191;28;804;-69
2022/04/17 14:07:31;;;;;;;;;;;18.60;59.90;;;;;;5032961;28;844;-70
2022/04/17 14:09:56;;;;;;;;;;;18.60;59.90;;;;;;5033248;28;820;-70
2022/04/17 14:12:24;;;;;;;;;;;18.60;59.90;;;;;;5031801;28;1333;-70
2022/04/17 14:14:55;;;;;;;;;;;18.60;59.90;;;;;;5031752;28;1914;-70
2022/04/17 14:17:20;;;;;;;;;;;18.60;59.90;;;;;;5032845;28;1099;-70
2022/04/17 14:19:46;;;;;;;;;;;18.60;59.90;;;;;;5032828;28;1189;-70
2022/04/17 14:22:11;;;;;;;;;;;18.60;59.90;;;;;;5033061;28;1245;-70
2022/04/17 14:24:36;;;;;;;;;;;18.60;59.90;;;;;;5032839;28;911;-71
2022/04/17 14:27:02;;;;;;;;;;;18.60;59.90;;;;;;5032859;28;1076;-70
2022/04/17 14:29:28;;;;;;;;;;;18.60;59.90;;;;;;5032987;28;918;-70
2022/04/17 14:31:53;;;;;;;;;;;18.60;59.90;;;;;;5015187;28;1331;-70
2022/04/17 14:34:19;;;;;;;;;;;18.60;60.00;;;;;;5015210;28;1964;-70
2022/04/17 14:36:44;;;;;;;;;;;18.60;60.00;;;;;;5032314;28;1112;-70
2022/04/17 14:39:09;;;;;;;;;;;18.60;60.00;;;;;;5031133;28;974;-70
2022/04/17 14:41:35;;;;;;;;;;;18.60;60.00;;;;;;5031368;28;1233;-70
2022/04/17 14:44:00;;;;;;;;;;;18.60;60.00;;;;;;5032701;28;807;-70
2022/04/17 14:46:26;;;;;;;;;;;18.50;60.00;;;;;;5031208;28;752;-70
2022/04/17 14:48:51;;;;;;;;;;;18.50;60.00;;;;;;5031651;28;852;-71